createdAt,value
2022-08-03T00:02:18.010Z,16.20
2022-08-03T00:04:46.312Z,16.30
2022-08-03T00:07:14.341Z,16.20
2022-08-03T00:09:42.852Z,16.20
2022-08-03T00:12:12.146Z,16.20
2022-08-03T00:14:40.008Z,16.20
2022-08-03T00:17:07.879Z,16.10
2022-08-03T00:19:35.787Z,16.10
2022-08-03T00:22:03.790Z,16.10
2022-08-03T00:24:32.150Z,16.10
2022-08-03T00:26:59.955Z,16.10
2022-08-03T00:29:29.176Z,16.00
2022-08-03T00:31:59.593Z,16.00
2022-08-03T00:34:57.300Z,16.00
2022-08-03T00:37:16.447Z,16.00
2022-08-03T00:39:46.197Z,15.90
2022-08-03T00:42:14.664Z,15.90
2022-08-03T00:44:44.830Z,15.80
2022-08-03T00:47:13.024Z,15.80
2022-08-03T00:49:41.500Z,15.80
2022-08-03T00:52:09.921Z,15.80
2022-08-03T00:54:38.335Z,15.80
2022-08-03T00:57:06.286Z,15.80
2022-08-03T00:59:34.596Z,15.80
2022-08-03T01:02:03.783Z,15.80
2022-08-03T01:04:31.803Z,15.70
2022-08-03T01:07:04.148Z,15.70
2022-08-03T01:09:37.861Z,15.70
2022-08-03T01:12:11.572Z,15.70
2022-08-03T01:14:42.141Z,15.60
2022-08-03T01:17:14.299Z,15.50
2022-08-03T01:19:48.271Z,15.50
2022-08-03T01:22:33.788Z,15.50
2022-08-03T01:25:06.118Z,15.50
2022-08-03T01:27:42.301Z,15.50
2022-08-03T01:30:12.375Z,15.50
2022-08-03T01:32:59.468Z,15.50
2022-08-03T01:35:30.805Z,15.40
2022-08-03T01:37:59.355Z,15.40
2022-08-03T01:40:28.784Z,15.40
2022-08-03T01:42:57.716Z,15.40
2022-08-03T01:45:27.668Z,15.40
2022-08-03T01:47:56.595Z,15.40
2022-08-03T01:50:25.804Z,15.40
2022-08-03T01:52:54.204Z,15.40
2022-08-03T01:55:23.660Z,15.40
2022-08-03T01:58:05.765Z,15.40
2022-08-03T02:00:36.318Z,15.40
2022-08-03T02:03:05.751Z,15.40
2022-08-03T02:05:33.875Z,15.30
2022-08-03T02:08:02.828Z,15.30
2022-08-03T02:10:35.293Z,15.30
2022-08-03T02:13:06.100Z,15.30
2022-08-03T02:15:34.524Z,15.30
2022-08-03T02:18:06.096Z,15.20
2022-08-03T02:20:36.391Z,15.20
2022-08-03T02:23:04.396Z,15.20
2022-08-03T02:25:33.285Z,15.20
2022-08-03T02:28:07.616Z,15.10
2022-08-03T02:30:38.521Z,15.10
2022-08-03T02:33:09.041Z,15.10
2022-08-03T02:35:38.069Z,15.00
2022-08-03T02:38:08.590Z,15.00
2022-08-03T02:40:37.351Z,15.00
2022-08-03T02:43:08.754Z,15.00
2022-08-03T02:45:37.051Z,15.00
2022-08-03T02:48:05.438Z,15.00
2022-08-03T02:50:35.605Z,15.00
2022-08-03T02:53:04.058Z,14.90
2022-08-03T02:55:32.936Z,15.00
2022-08-03T02:58:01.449Z,14.90
2022-08-03T03:00:30.536Z,14.90
2022-08-03T03:02:59.607Z,14.80
2022-08-03T03:05:55.485Z,14.80
2022-08-03T03:08:26.150Z,14.80
2022-08-03T03:10:57.243Z,14.70
2022-08-03T03:13:25.606Z,14.70
2022-08-03T03:15:53.917Z,14.70
2022-08-03T03:18:23.059Z,14.60
2022-08-03T03:20:52.513Z,14.60
2022-08-03T03:23:22.426Z,14.60
2022-08-03T03:25:50.664Z,14.60
2022-08-03T03:28:18.651Z,14.50
2022-08-03T03:30:53.153Z,14.50
2022-08-03T03:33:21.601Z,14.50
2022-08-03T03:35:49.500Z,14.50
2022-08-03T03:38:17.336Z,14.50
2022-08-03T03:40:46.493Z,14.50
2022-08-03T03:43:14.384Z,14.40
2022-08-03T03:45:42.520Z,14.40
2022-08-03T03:48:10.357Z,14.50
2022-08-03T03:50:40.882Z,14.50
2022-08-03T03:53:10.533Z,14.50
2022-08-03T03:55:58.914Z,14.50
2022-08-03T03:58:27.658Z,14.50
2022-08-03T04:00:55.547Z,14.50
2022-08-03T04:03:23.729Z,14.50
2022-08-03T04:06:09.241Z,14.50
2022-08-03T04:08:54.378Z,14.50
2022-08-03T04:11:30.401Z,14.50
2022-08-03T04:14:04.472Z,14.50
2022-08-03T04:16:33.479Z,14.60
2022-08-03T04:19:03.377Z,14.60
2022-08-03T04:21:31.582Z,14.60
2022-08-03T04:24:00.524Z,14.60
2022-08-03T04:26:30.136Z,14.70
2022-08-03T04:28:58.259Z,14.70
2022-08-03T04:31:28.327Z,14.80
2022-08-03T04:33:56.451Z,14.90
2022-08-03T04:36:25.942Z,14.90
2022-08-03T04:38:56.458Z,15.00
2022-08-03T04:41:26.043Z,15.10
2022-08-03T04:43:55.225Z,15.10
2022-08-03T04:46:24.407Z,15.20
2022-08-03T04:48:54.116Z,15.30
2022-08-03T04:51:22.183Z,15.40
2022-08-03T04:53:50.194Z,15.50
2022-08-03T04:56:18.305Z,15.50
2022-08-03T04:58:46.334Z,15.70
2022-08-03T05:01:14.228Z,15.80
2022-08-03T05:03:42.084Z,15.90
2022-08-03T05:06:11.773Z,16.00
2022-08-03T05:08:46.149Z,16.10
2022-08-03T05:11:15.416Z,16.20
2022-08-03T05:13:43.285Z,16.30
2022-08-03T05:16:11.833Z,16.40
2022-08-03T05:18:39.678Z,16.50
2022-08-03T05:21:07.569Z,16.60
2022-08-03T05:23:37.837Z,16.80
2022-08-03T05:26:05.707Z,16.80
2022-08-03T05:28:33.555Z,16.90
2022-08-03T05:31:01.388Z,17.10
2022-08-03T05:33:29.208Z,17.10
2022-08-03T05:36:03.429Z,17.20
2022-08-03T05:38:35.125Z,17.40
2022-08-03T05:41:21.247Z,17.50
2022-08-03T05:43:52.066Z,17.60
2022-08-03T05:46:20.557Z,17.80
2022-08-03T05:48:48.407Z,18.00
2022-08-03T05:51:16.227Z,18.20
2022-08-03T05:53:44.348Z,18.40
2022-08-03T05:56:16.018Z,18.50
2022-08-03T05:58:45.408Z,18.60
2022-08-03T06:01:13.331Z,18.80
2022-08-03T06:03:41.433Z,18.90
2022-08-03T06:06:09.321Z,19.10
2022-08-03T06:08:37.211Z,19.30
2022-08-03T06:11:05.152Z,19.50
2022-08-03T06:13:34.391Z,19.60
2022-08-03T06:16:02.323Z,19.80
2022-08-03T06:18:30.208Z,20.00
2022-08-03T06:20:58.027Z,20.10
2022-08-03T06:23:53.167Z,20.40
2022-08-03T06:26:22.780Z,20.40
2022-08-03T06:28:54.373Z,20.70
2022-08-03T06:31:23.837Z,20.80
2022-08-03T06:34:32.838Z,21.00
2022-08-03T06:36:39.592Z,21.20
2022-08-03T06:39:08.076Z,21.40
2022-08-03T06:41:37.494Z,21.50
2022-08-03T06:44:07.648Z,21.70
2022-08-03T06:46:35.620Z,21.90
2022-08-03T06:49:03.504Z,22.10
2022-08-03T06:52:05.656Z,22.30
2022-08-03T06:54:19.261Z,22.50
2022-08-03T06:56:47.101Z,22.70
2022-08-03T07:00:10.527Z,22.90
2022-08-03T07:02:04.574Z,23.10
2022-08-03T07:04:33.308Z,23.30
2022-08-03T07:07:01.134Z,23.50
2022-08-03T07:09:29.115Z,23.70
2022-08-03T07:11:57.058Z,23.90
2022-08-03T07:14:26.279Z,24.00
2022-08-03T07:16:54.120Z,24.30
2022-08-03T07:19:22.002Z,24.40
2022-08-03T07:21:49.830Z,24.50
2022-08-03T07:24:21.424Z,24.70
2022-08-03T07:26:49.321Z,24.90
2022-08-03T07:29:17.241Z,25.10
2022-08-03T07:31:46.455Z,25.40
2022-08-03T07:34:14.479Z,25.60
2022-08-03T07:36:42.319Z,25.80
2022-08-03T07:39:15.988Z,26.00
2022-08-03T07:41:46.068Z,26.10
2022-08-03T07:44:14.577Z,26.30
2022-08-03T07:46:42.446Z,26.50
2022-08-03T07:49:11.689Z,26.70
2022-08-03T07:51:39.809Z,26.80
2022-08-03T07:54:07.769Z,26.80
2022-08-03T07:56:35.621Z,26.90
2022-08-03T07:59:03.567Z,26.90
2022-08-03T08:01:32.808Z,27.10
2022-08-03T08:04:00.796Z,27.20
2022-08-03T08:06:31.732Z,27.40
2022-08-03T08:09:02.272Z,27.50
2022-08-03T08:11:30.132Z,27.70
2022-08-03T08:13:57.998Z,28.00
2022-08-03T08:16:25.844Z,28.10
2022-08-03T08:18:53.728Z,28.20
2022-08-03T08:21:21.555Z,28.30
2022-08-03T08:23:57.166Z,28.60
2022-08-03T08:26:25.872Z,28.70
2022-08-03T08:28:53.706Z,28.80
2022-08-03T08:31:21.549Z,28.90
2022-08-03T08:34:03.607Z,29.00
2022-08-03T08:36:32.840Z,29.10
2022-08-03T08:39:02.332Z,29.30
2022-08-03T08:41:33.700Z,29.30
2022-08-03T08:44:01.528Z,29.40
2022-08-03T08:46:30.766Z,29.50
2022-08-03T08:51:54.253Z,30.00
2022-08-03T08:54:19.101Z,30.10
2022-08-03T08:56:47.295Z,30.20
2022-08-03T08:59:15.719Z,30.30
2022-08-03T09:01:43.632Z,30.40
2022-08-03T09:04:12.230Z,30.60
2022-08-03T09:06:40.101Z,30.80
2022-08-03T09:09:08.240Z,30.90
2022-08-03T09:11:52.458Z,30.90
2022-08-03T09:14:39.413Z,30.80
2022-08-03T09:17:10.348Z,31.10
2022-08-03T09:20:04.244Z,31.20
2022-08-03T09:22:33.370Z,31.20
2022-08-03T09:25:23.197Z,31.40
2022-08-03T09:27:53.332Z,31.50
2022-08-03T09:30:33.868Z,31.60
2022-08-03T09:33:03.168Z,31.80
2022-08-03T09:38:19.685Z,32.00
2022-08-03T09:40:47.515Z,32.20
2022-08-03T09:43:19.718Z,32.10
2022-08-03T09:45:47.646Z,32.20
2022-08-03T09:48:22.464Z,32.30
2022-08-03T09:50:58.657Z,32.50
2022-08-03T09:53:26.999Z,32.50
2022-08-03T09:56:33.263Z,32.60
2022-08-03T09:58:47.556Z,32.70
2022-08-03T10:01:24.494Z,32.80
2022-08-03T10:04:03.182Z,33.00
2022-08-03T10:06:32.444Z,33.00
2022-08-03T10:09:07.590Z,32.90
2022-08-03T10:11:40.884Z,32.90
2022-08-03T10:14:18.717Z,32.90
2022-08-03T10:16:47.398Z,33.00
2022-08-03T10:19:15.734Z,33.30
2022-08-03T10:21:47.565Z,33.50
2022-08-03T10:24:16.834Z,33.80
2022-08-03T10:26:49.852Z,32.90
2022-08-03T10:29:22.333Z,32.70
2022-08-03T10:31:57.375Z,33.00
2022-08-03T10:34:27.580Z,33.20
2022-08-03T10:36:57.393Z,33.50
2022-08-03T10:39:28.490Z,33.80
2022-08-03T10:41:58.643Z,33.60
2022-08-03T10:44:32.010Z,33.60
2022-08-03T10:47:00.121Z,34.10
2022-08-03T10:49:34.536Z,34.30
2022-08-03T10:52:10.378Z,34.50
2022-08-03T10:55:10.726Z,34.80
2022-08-03T10:57:45.854Z,34.70
2022-08-03T11:00:18.868Z,33.70
2022-08-03T11:03:17.607Z,33.50
2022-08-03T11:05:46.111Z,34.00
2022-08-03T11:08:30.468Z,34.30
2022-08-03T11:10:59.888Z,34.50
2022-08-03T11:13:31.098Z,34.60
2022-08-03T11:16:02.443Z,34.90
2022-08-03T11:18:32.752Z,34.70
2022-08-03T11:21:01.342Z,34.10
2022-08-03T11:24:02.889Z,34.40
2022-08-03T11:26:33.258Z,34.80
2022-08-03T11:29:16.018Z,35.10
2022-08-03T11:31:51.034Z,35.10
2022-08-03T11:34:19.585Z,35.00
2022-08-03T11:37:06.308Z,35.00
2022-08-03T11:39:40.376Z,35.20
2022-08-03T11:42:23.068Z,34.50
2022-08-03T11:44:51.209Z,34.30
2022-08-03T11:47:21.498Z,34.70
2022-08-03T11:49:50.033Z,35.20
2022-08-03T11:52:18.430Z,35.40
2022-08-03T11:54:46.580Z,35.60
2022-08-03T11:59:10.818Z,35.70
2022-08-03T12:00:21.281Z,35.80
2022-08-03T12:03:10.570Z,35.90
2022-08-03T12:05:51.896Z,36.10
2022-08-03T12:08:30.182Z,36.20
2022-08-03T12:10:58.562Z,36.30
2022-08-03T12:14:37.373Z,36.60
2022-08-03T12:16:18.781Z,36.60
2022-08-03T12:18:46.736Z,36.50
2022-08-03T12:21:16.514Z,36.80
2022-08-03T12:23:44.427Z,36.90
2022-08-03T12:26:12.251Z,37.00
2022-08-03T12:28:49.752Z,36.90
2022-08-03T12:31:17.980Z,36.90
2022-08-03T12:33:59.595Z,37.00
2022-08-03T12:36:29.335Z,37.20
2022-08-03T12:38:57.968Z,37.30
2022-08-03T12:41:30.083Z,37.10
2022-08-03T12:43:57.991Z,37.30
2022-08-03T12:46:30.844Z,37.40
2022-08-03T12:48:59.190Z,37.40
2022-08-03T12:51:27.885Z,37.70
2022-08-03T12:53:57.897Z,37.80
2022-08-03T12:56:25.747Z,37.80
2022-08-03T12:58:54.082Z,37.90
2022-08-03T13:01:24.474Z,37.80
2022-08-03T13:03:54.523Z,37.70
2022-08-03T13:06:23.809Z,38.00
2022-08-03T13:09:02.087Z,38.20
2022-08-03T13:11:57.719Z,38.30
2022-08-03T13:14:20.315Z,38.10
2022-08-03T13:16:48.738Z,38.10
2022-08-03T13:19:16.551Z,38.20
2022-08-03T13:21:53.406Z,38.40
2022-08-03T13:24:32.448Z,38.30
2022-08-03T13:28:01.377Z,38.30
2022-08-03T13:29:50.567Z,38.20
2022-08-03T13:32:18.404Z,38.40
2022-08-03T13:34:46.301Z,38.40
2022-08-03T13:37:14.351Z,38.40
2022-08-03T13:39:57.225Z,38.40
2022-08-03T13:42:29.354Z,38.50
2022-08-03T13:44:57.292Z,38.60
2022-08-03T13:47:25.154Z,38.70
2022-08-03T13:49:59.373Z,38.40
2022-08-03T13:52:28.568Z,38.20
2022-08-03T13:54:56.421Z,38.20
2022-08-03T13:58:02.244Z,38.40
2022-08-03T14:00:26.553Z,38.50
2022-08-03T14:03:02.877Z,38.40
2022-08-03T14:05:32.667Z,38.40
2022-08-03T14:08:04.169Z,38.40
2022-08-03T14:10:33.341Z,38.50
2022-08-03T14:13:01.281Z,38.60
2022-08-03T14:15:30.569Z,38.60
2022-08-03T14:17:59.011Z,38.80
2022-08-03T14:20:38.598Z,38.70
2022-08-03T14:23:15.082Z,38.50
2022-08-03T14:25:51.811Z,38.40
2022-08-03T14:28:22.244Z,38.30
2022-08-03T14:30:52.029Z,38.10
2022-08-03T14:33:19.998Z,38.00
2022-08-03T14:35:47.896Z,37.80
2022-08-03T14:38:16.157Z,37.60
2022-08-03T14:40:44.191Z,37.30
2022-08-03T14:43:12.161Z,37.30
2022-08-03T14:45:40.101Z,37.40
2022-08-03T14:49:02.708Z,37.10
2022-08-03T14:50:57.194Z,37.00
2022-08-03T14:53:25.138Z,37.00
2022-08-03T14:55:53.614Z,36.80
2022-08-03T14:58:22.419Z,36.70
2022-08-03T15:00:50.791Z,36.50
2022-08-03T15:03:23.406Z,36.30
2022-08-03T15:05:51.987Z,36.10
2022-08-03T15:08:19.903Z,35.80
2022-08-03T15:10:48.400Z,35.40
2022-08-03T15:13:17.194Z,35.20
2022-08-03T15:15:45.073Z,35.00
2022-08-03T15:18:13.069Z,34.80
2022-08-03T15:20:45.369Z,34.70
2022-08-03T15:23:14.139Z,34.60
2022-08-03T15:26:31.752Z,34.50
2022-08-03T15:28:30.246Z,34.50
2022-08-03T15:30:58.263Z,34.60
2022-08-03T15:33:26.134Z,34.70
2022-08-03T15:35:56.150Z,34.80
2022-08-03T15:38:25.777Z,34.90
2022-08-03T15:40:54.424Z,35.10
2022-08-03T15:43:22.634Z,35.00
2022-08-03T15:46:19.132Z,35.10
2022-08-03T15:48:38.620Z,35.00
2022-08-03T15:51:08.255Z,35.00
2022-08-03T15:53:36.428Z,35.00
2022-08-03T15:56:09.998Z,35.00
2022-08-03T15:59:10.622Z,34.90
2022-08-03T16:01:28.472Z,34.90
2022-08-03T16:03:56.399Z,34.80
2022-08-03T16:06:29.828Z,34.70
2022-08-03T16:09:03.551Z,34.60
2022-08-03T16:11:31.409Z,34.30
2022-08-03T16:14:12.930Z,33.80
2022-08-03T16:16:47.373Z,33.50
2022-08-03T16:19:15.277Z,33.20
2022-08-03T16:21:48.425Z,32.80
2022-08-03T16:24:17.539Z,32.40
2022-08-03T16:26:47.798Z,32.20
2022-08-03T16:29:23.023Z,31.90
2022-08-03T16:31:51.975Z,31.60
2022-08-03T16:34:20.330Z,31.40
2022-08-03T16:36:49.674Z,31.10
2022-08-03T16:39:17.604Z,30.90
2022-08-03T16:41:54.507Z,30.70
2022-08-03T16:44:29.536Z,30.40
2022-08-03T16:46:57.451Z,30.30
2022-08-03T16:49:55.543Z,30.10
2022-08-03T16:52:16.798Z,29.90
2022-08-03T16:54:53.896Z,29.70
2022-08-03T16:57:56.407Z,29.60
2022-08-03T17:00:11.683Z,29.40
2022-08-03T17:02:48.050Z,29.30
2022-08-03T17:05:16.174Z,29.10
2022-08-03T17:07:47.011Z,29.00
2022-08-03T17:10:21.958Z,28.80
2022-08-03T17:12:54.866Z,28.70
2022-08-03T17:15:51.703Z,28.60
2022-08-03T17:18:14.846Z,28.50
2022-08-03T17:20:42.944Z,28.40
2022-08-03T17:23:34.788Z,28.20
2022-08-03T17:26:04.856Z,28.10
2022-08-03T17:28:50.181Z,27.90
2022-08-03T17:31:32.254Z,27.80
2022-08-03T17:34:11.297Z,27.70
2022-08-03T17:37:05.528Z,27.50
2022-08-03T17:39:55.569Z,27.40
2022-08-03T17:42:26.962Z,27.20
2022-08-03T17:47:57.943Z,27.00
2022-08-03T17:50:29.745Z,26.90
2022-08-03T17:53:07.039Z,26.80
2022-08-03T17:55:57.093Z,26.60
2022-08-03T17:58:34.356Z,26.60
2022-08-03T18:01:59.545Z,26.40
2022-08-03T18:04:11.868Z,26.30
2022-08-03T18:10:06.181Z,26.00
2022-08-03T18:12:24.128Z,25.90
2022-08-03T18:15:01.197Z,25.80
2022-08-03T18:17:55.621Z,25.70
2022-08-03T18:20:31.305Z,25.50
2022-08-03T18:25:57.599Z,25.30
2022-08-03T18:28:27.825Z,25.10
2022-08-03T18:30:57.152Z,25.00
2022-08-03T18:34:16.449Z,24.80
2022-08-03T18:36:21.779Z,24.70
2022-08-03T18:39:06.186Z,24.60
2022-08-03T18:41:35.187Z,24.40
2022-08-03T18:44:09.066Z,24.20
2022-08-03T18:47:01.555Z,24.10
2022-08-03T18:49:41.456Z,24.00
2022-08-03T18:52:13.337Z,23.80
2022-08-03T18:55:01.050Z,23.70
2022-08-03T18:57:39.435Z,23.60
2022-08-03T19:00:14.214Z,23.40
2022-08-03T19:02:48.994Z,23.30
2022-08-03T19:05:18.376Z,23.20
2022-08-03T19:07:58.392Z,23.00
2022-08-03T19:10:30.919Z,22.80
2022-08-03T19:13:04.039Z,22.70
2022-08-03T19:15:37.054Z,22.60
2022-08-03T19:18:11.908Z,22.40
2022-08-03T19:20:46.765Z,22.30
2022-08-03T19:23:16.603Z,22.20
2022-08-03T19:25:44.879Z,22.10
2022-08-03T19:28:12.905Z,22.00
2022-08-03T19:30:46.449Z,21.90
2022-08-03T19:33:21.572Z,21.80
2022-08-03T19:35:55.450Z,21.70
2022-08-03T19:38:28.387Z,21.60
2022-08-03T19:40:59.538Z,21.40
2022-08-03T19:43:33.017Z,21.40
2022-08-03T19:46:20.354Z,21.30
2022-08-03T19:48:53.964Z,21.30
2022-08-03T19:51:56.637Z,21.20
2022-08-03T19:54:13.604Z,21.20
2022-08-03T19:56:45.111Z,21.10
2022-08-03T19:59:16.418Z,21.00
2022-08-03T20:01:50.795Z,20.90
2022-08-03T20:04:20.596Z,20.80
2022-08-03T20:06:49.672Z,20.70
2022-08-03T20:09:18.623Z,20.50
2022-08-03T20:11:48.145Z,20.40
2022-08-03T20:14:20.756Z,20.30
2022-08-03T20:16:55.829Z,20.30
2022-08-03T20:19:24.200Z,20.20
2022-08-03T20:22:00.588Z,20.10
2022-08-03T20:24:29.177Z,20.00
2022-08-03T20:26:58.071Z,19.90
2022-08-03T20:30:05.048Z,19.90
2022-08-03T20:32:19.321Z,19.80
2022-08-03T20:34:53.295Z,19.80
2022-08-03T20:37:21.440Z,19.70
2022-08-03T20:39:49.582Z,19.70
2022-08-03T20:42:21.082Z,19.70
2022-08-03T20:44:58.945Z,19.60
2022-08-03T20:47:36.449Z,19.60
2022-08-03T20:50:09.904Z,19.60
2022-08-03T20:52:49.317Z,19.50
2022-08-03T20:55:17.962Z,19.50
2022-08-03T20:57:51.569Z,19.40
2022-08-03T21:00:22.154Z,19.30
2022-08-03T21:02:51.597Z,19.20
2022-08-03T21:05:21.224Z,19.20
2022-08-03T21:08:07.957Z,19.10
2022-08-03T21:10:38.634Z,19.10
2022-08-03T21:12:57.898Z,25.40
2022-08-03T21:13:04.062Z,27.20
2022-08-03T21:13:05.549Z,26.20
2022-08-03T21:13:17.122Z,19.00
2022-08-03T21:16:11.963Z,18.90
2022-08-03T21:18:37.848Z,18.90
2022-08-03T21:21:07.177Z,18.80
2022-08-03T21:23:47.940Z,18.70
2022-08-03T21:26:17.794Z,18.70
2022-08-03T21:28:46.546Z,18.60
2022-08-03T21:31:14.456Z,18.60
2022-08-03T21:33:52.718Z,18.60
2022-08-03T21:36:20.673Z,18.50
2022-08-03T21:38:56.333Z,18.50
2022-08-03T21:41:24.745Z,18.50
2022-08-03T21:43:52.632Z,18.50
2022-08-03T21:46:20.876Z,18.40
2022-08-03T21:48:52.273Z,18.40
2022-08-03T21:51:24.655Z,18.30
2022-08-03T21:54:00.432Z,18.30
2022-08-03T21:56:35.886Z,18.30
2022-08-03T21:59:05.278Z,18.20
2022-08-03T22:01:34.489Z,18.20
2022-08-03T22:04:04.576Z,18.10
2022-08-03T22:06:36.133Z,18.00
2022-08-03T22:09:06.391Z,18.00
2022-08-03T22:11:34.833Z,18.00
2022-08-03T22:14:02.974Z,17.90
2022-08-03T22:16:30.970Z,17.90
2022-08-03T22:18:58.845Z,17.90
2022-08-03T22:21:36.105Z,17.80
2022-08-03T22:24:06.617Z,17.80
2022-08-03T22:26:35.816Z,17.70
2022-08-03T22:29:07.109Z,17.70
2022-08-03T22:31:57.476Z,17.70
2022-08-03T22:34:26.554Z,17.60
2022-08-03T22:37:00.026Z,17.60
2022-08-03T22:39:30.096Z,17.50
2022-08-03T22:41:58.754Z,17.40
2022-08-03T22:44:27.245Z,17.40
2022-08-03T22:46:55.405Z,17.40
2022-08-03T22:49:23.427Z,17.40
2022-08-03T22:51:52.555Z,17.40
2022-08-03T22:54:20.439Z,17.30
2022-08-03T22:56:50.156Z,17.30
2022-08-03T22:59:40.313Z,17.30
2022-08-03T23:02:20.448Z,17.30
2022-08-03T23:04:50.798Z,17.30
2022-08-03T23:07:21.090Z,17.20
2022-08-03T23:09:49.811Z,17.20
2022-08-03T23:12:20.637Z,17.10
2022-08-03T23:14:52.569Z,17.10
2022-08-03T23:17:21.525Z,17.10
2022-08-03T23:19:51.078Z,17.00
2022-08-03T23:22:30.051Z,17.00
2022-08-03T23:24:59.185Z,17.00
2022-08-03T23:27:29.085Z,16.90
2022-08-03T23:29:59.296Z,16.90
2022-08-03T23:32:27.610Z,16.90
2022-08-03T23:35:14.609Z,16.90
2022-08-03T23:38:04.805Z,16.90
2022-08-03T23:40:31.072Z,16.90
2022-08-03T23:43:02.067Z,16.80
2022-08-03T23:45:30.000Z,16.80
2022-08-03T23:47:57.854Z,16.80
2022-08-03T23:50:26.265Z,16.80
2022-08-03T23:52:56.738Z,16.70
2022-08-03T23:55:31.816Z,16.70
2022-08-03T23:58:04.761Z,16.70
